createdAt,value
2023-11-08T00:00:02.530Z,121.78
2023-11-08T00:01:02.968Z,119.92
2023-11-08T00:02:02.465Z,120.38
2023-11-08T00:04:02.332Z,117.81
2023-11-08T00:05:02.507Z,116.88
2023-11-08T00:06:04.713Z,115.71
2023-11-08T00:07:01.945Z,115.71
2023-11-08T00:10:02.894Z,118.75
2023-11-08T00:11:02.265Z,118.75
2023-11-08T00:12:02.175Z,118.98
2023-11-08T00:14:02.386Z,120.38
2023-11-08T00:16:02.659Z,120.38
2023-11-08T00:17:02.109Z,120.38
2023-11-08T00:18:02.204Z,119.68
2023-11-08T00:19:02.746Z,120.15
2023-11-08T00:20:02.009Z,119.22
2023-11-08T00:21:02.214Z,118.75
2023-11-08T00:22:02.780Z,120.15
2023-11-08T00:23:02.592Z,118.98
2023-11-08T00:24:02.174Z,118.98
2023-11-08T00:25:02.671Z,122.02
2023-11-08T00:26:02.464Z,122.02
2023-11-08T00:27:02.285Z,123.65
2023-11-08T00:28:02.306Z,122.25
2023-11-08T00:29:02.336Z,122.72
2023-11-08T00:32:03.036Z,122.72
2023-11-08T00:33:02.521Z,122.95
2023-11-08T00:34:01.937Z,122.02
2023-11-08T00:35:02.979Z,121.08
2023-11-08T00:36:02.011Z,120.62
2023-11-08T00:37:02.053Z,119.22
2023-11-08T00:39:02.878Z,121.55
2023-11-08T00:40:02.526Z,118.75
2023-11-08T00:41:02.534Z,117.11
2023-11-08T00:43:02.691Z,115.71
2023-11-08T00:44:02.245Z,116.88
2023-11-08T00:45:02.487Z,116.41
2023-11-08T00:46:02.056Z,116.41
2023-11-08T00:47:02.239Z,115.71
2023-11-08T00:48:02.753Z,113.61
2023-11-08T00:49:02.101Z,113.38
2023-11-08T00:51:02.168Z,111.27
2023-11-08T00:54:02.181Z,110.81
2023-11-08T00:55:10.577Z,111.04
2023-11-08T00:56:02.317Z,110.34
2023-11-08T00:57:02.128Z,111.27
2023-11-08T00:58:02.489Z,110.11
2023-11-08T00:59:02.807Z,110.11
2023-11-08T01:00:03.000Z,110.34
2023-11-08T01:01:02.053Z,111.04
2023-11-08T01:03:03.123Z,111.97
2023-11-08T01:04:02.824Z,112.91
2023-11-08T01:05:02.876Z,113.14
2023-11-08T01:06:01.862Z,112.91
2023-11-08T01:07:02.565Z,113.14
2023-11-08T01:08:02.773Z,111.74
2023-11-08T01:09:02.703Z,111.74
2023-11-08T01:10:02.145Z,109.41
2023-11-08T01:11:02.407Z,108.7
2023-11-08T01:12:02.361Z,110.11
2023-11-08T01:13:02.160Z,109.17
2023-11-08T01:15:02.283Z,107.07
2023-11-08T01:16:02.716Z,108.47
2023-11-08T01:17:02.423Z,109.17
2023-11-08T01:18:02.716Z,108.7
2023-11-08T01:19:02.250Z,108.7
2023-11-08T01:20:02.310Z,108.94
2023-11-08T01:22:02.523Z,105.67
2023-11-08T01:23:02.209Z,106.37
2023-11-08T01:24:02.423Z,106.6
2023-11-08T01:25:02.446Z,104.97
2023-11-08T01:26:02.532Z,105.9
2023-11-08T01:27:01.965Z,104.5
2023-11-08T01:28:02.381Z,105.44
2023-11-08T01:29:02.436Z,103.57
2023-11-08T01:30:02.092Z,102.17
2023-11-08T01:31:02.931Z,102.17
2023-11-08T01:33:02.539Z,100.53
2023-11-08T01:34:02.514Z,100.53
2023-11-08T01:35:02.133Z,99.83
2023-11-08T01:36:01.682Z,99.6
2023-11-08T01:37:02.128Z,101.7
2023-11-08T01:38:02.745Z,102.4
2023-11-08T01:39:02.449Z,101
2023-11-08T01:40:02.053Z,101.47
2023-11-08T01:41:02.887Z,102.17
2023-11-08T01:43:02.050Z,102.17
2023-11-08T01:44:02.339Z,103.1
2023-11-08T01:46:02.549Z,102.17
2023-11-08T01:47:02.493Z,102.17
2023-11-08T01:48:02.095Z,102.87
2023-11-08T01:50:02.921Z,102.4
2023-11-08T01:51:02.225Z,101.93
2023-11-08T01:52:02.276Z,101.93
2023-11-08T01:54:01.641Z,104.73
2023-11-08T01:55:01.878Z,106.14
2023-11-08T01:58:02.450Z,106.6
2023-11-08T01:59:01.834Z,105.67
2023-11-08T02:00:02.480Z,105.2
2023-11-08T02:01:02.496Z,104.5
2023-11-08T02:03:02.470Z,103.57
2023-11-08T02:04:02.459Z,103.8
2023-11-08T02:05:02.127Z,103.57
2023-11-08T02:06:01.956Z,104.73
2023-11-08T02:08:02.273Z,106.84
2023-11-08T02:09:02.311Z,107.77
2023-11-08T02:10:02.910Z,108.94
2023-11-08T02:13:02.671Z,111.04
2023-11-08T02:14:02.941Z,111.51
2023-11-08T02:15:02.615Z,111.74
2023-11-08T02:16:02.228Z,110.34
2023-11-08T02:17:02.850Z,110.81
2023-11-08T02:18:02.849Z,110.11
2023-11-08T02:19:02.515Z,109.64
2023-11-08T02:20:02.560Z,110.34
2023-11-08T02:21:01.997Z,112.21
2023-11-08T02:22:02.046Z,113.38
2023-11-08T02:23:02.462Z,113.14
2023-11-08T02:24:02.120Z,112.68
2023-11-08T02:25:02.182Z,113.61
2023-11-08T02:26:02.880Z,114.31
2023-11-08T02:27:02.856Z,115.24
2023-11-08T02:29:02.514Z,115.24
2023-11-08T02:30:03.184Z,115.71
2023-11-08T02:31:02.251Z,113.14
2023-11-08T02:32:02.401Z,114.08
2023-11-08T02:33:02.004Z,115.01
2023-11-08T02:34:02.598Z,115.01
2023-11-08T02:35:01.863Z,115.48
2023-11-08T02:36:02.065Z,115.48
2023-11-08T02:37:01.971Z,113.84
2023-11-08T02:38:02.228Z,112.44
2023-11-08T02:39:02.597Z,112.21
2023-11-08T02:40:02.973Z,112.44
2023-11-08T02:41:02.426Z,111.27
2023-11-08T02:42:02.282Z,110.11
2023-11-08T02:43:02.690Z,110.81
2023-11-08T02:44:02.583Z,110.34
2023-11-08T02:45:02.367Z,110.11
2023-11-08T02:46:02.864Z,109.64
2023-11-08T02:47:02.004Z,109.64
2023-11-08T02:48:02.064Z,108.24
2023-11-08T02:49:02.237Z,108.47
2023-11-08T02:50:01.911Z,107.77
2023-11-08T02:51:03.262Z,107.54
2023-11-08T02:52:02.804Z,106.14
2023-11-08T02:54:02.582Z,104.97
2023-11-08T02:55:02.618Z,103.8
2023-11-08T02:56:02.181Z,103.8
2023-11-08T02:57:02.061Z,104.27
2023-11-08T02:59:02.849Z,105.67
2023-11-08T03:00:02.195Z,106.14
2023-11-08T03:01:02.414Z,106.14
2023-11-08T03:02:02.262Z,106.6
2023-11-08T03:03:02.151Z,106.14
2023-11-08T03:04:01.787Z,105.2
2023-11-08T03:05:02.672Z,105.9
2023-11-08T03:06:02.609Z,105.44
2023-11-08T03:07:01.931Z,105.2
2023-11-08T03:08:02.569Z,104.97
2023-11-08T03:09:02.235Z,104.97
2023-11-08T03:10:03.329Z,104.5
2023-11-08T03:11:02.207Z,103.1
2023-11-08T03:12:02.463Z,101
2023-11-08T03:14:02.636Z,101.7
2023-11-08T03:16:02.395Z,100.76
2023-11-08T03:17:02.433Z,100.53
2023-11-08T03:18:02.832Z,102.17
2023-11-08T03:19:02.434Z,102.63
2023-11-08T03:20:01.959Z,101.23
2023-11-08T03:21:02.810Z,100.06
2023-11-08T03:22:02.904Z,100.06
2023-11-08T03:23:02.230Z,99.13
2023-11-08T03:25:02.301Z,99.6
2023-11-08T03:26:03.015Z,97.73
2023-11-08T03:28:02.198Z,98.2
2023-11-08T03:29:01.766Z,98.66
2023-11-08T03:30:02.433Z,100.53
2023-11-08T03:31:02.307Z,101.93
2023-11-08T03:32:02.519Z,101
2023-11-08T03:33:02.509Z,101.7
2023-11-08T03:34:01.865Z,102.87
2023-11-08T03:35:02.676Z,102.87
2023-11-08T03:36:02.089Z,103.57
2023-11-08T03:37:02.263Z,105.67
2023-11-08T03:38:02.810Z,105.67
2023-11-08T03:39:02.647Z,105.67
2023-11-08T03:40:02.448Z,105.67
2023-11-08T03:41:02.143Z,107.54
2023-11-08T03:42:02.213Z,108.7
2023-11-08T03:43:01.942Z,109.17
2023-11-08T03:44:02.989Z,108.7
2023-11-08T03:45:02.641Z,110.81
2023-11-08T03:46:02.509Z,110.11
2023-11-08T03:47:02.614Z,109.87
2023-11-08T03:48:02.095Z,111.04
2023-11-08T03:49:02.522Z,110.57
2023-11-08T03:50:02.580Z,110.81
2023-11-08T03:51:01.908Z,112.44
2023-11-08T03:52:01.854Z,112.68
2023-11-08T03:53:02.837Z,113.38
2023-11-08T03:54:02.135Z,113.61
2023-11-08T03:55:02.872Z,114.08
2023-11-08T03:56:02.576Z,114.31
2023-11-08T03:57:02.288Z,113.84
2023-11-08T03:58:02.611Z,113.84
2023-11-08T03:59:02.870Z,112.91
2023-11-08T04:02:02.195Z,110.81
2023-11-08T04:03:02.858Z,110.57
2023-11-08T04:04:02.117Z,111.51
2023-11-08T04:05:02.450Z,111.74
2023-11-08T04:06:02.303Z,110.11
2023-11-08T04:07:02.246Z,109.64
2023-11-08T04:08:02.729Z,110.34
2023-11-08T04:09:02.178Z,109.41
2023-11-08T04:10:02.832Z,109.41
2023-11-08T04:11:02.011Z,110.34
2023-11-08T04:12:02.529Z,110.81
2023-11-08T04:13:02.640Z,110.81
2023-11-08T04:14:02.308Z,110.11
2023-11-08T04:15:01.428Z,110.57
2023-11-08T04:16:02.954Z,110.81
2023-11-08T04:17:02.538Z,109.17
2023-11-08T04:18:02.915Z,108.24
2023-11-08T04:19:02.664Z,108.24
2023-11-08T04:20:02.199Z,108.47
2023-11-08T04:21:02.032Z,109.64
2023-11-08T04:22:02.530Z,110.57
2023-11-08T04:23:02.895Z,111.04
2023-11-08T04:25:02.672Z,108.94
2023-11-08T04:26:02.478Z,108
2023-11-08T04:27:02.068Z,109.17
2023-11-08T04:28:02.388Z,107.54
2023-11-08T04:29:04.150Z,107.3
2023-11-08T04:30:02.408Z,104.5
2023-11-08T04:31:02.297Z,104.73
2023-11-08T04:32:03.053Z,104.73
2023-11-08T04:33:02.647Z,104.27
2023-11-08T04:34:03.007Z,106.14
2023-11-08T04:36:02.345Z,106.37
2023-11-08T04:37:02.536Z,105.2
2023-11-08T04:38:01.977Z,105.2
2023-11-08T04:40:02.875Z,106.37
2023-11-08T04:41:01.982Z,105.2
2023-11-08T04:42:02.316Z,105.44
2023-11-08T04:43:02.349Z,104.27
2023-11-08T04:44:02.367Z,105.2
2023-11-08T04:45:02.533Z,103.57
2023-11-08T04:46:02.278Z,103.57
2023-11-08T04:47:02.258Z,103.8
2023-11-08T04:48:02.704Z,102.4
2023-11-08T04:49:02.857Z,102.63
2023-11-08T04:50:02.527Z,103.33
2023-11-08T04:52:02.373Z,101.47
2023-11-08T04:53:02.747Z,100.53
2023-11-08T04:54:02.123Z,101.23
2023-11-08T04:55:01.961Z,101.23
2023-11-08T04:56:02.058Z,101
2023-11-08T04:57:02.326Z,100.76
2023-11-08T04:58:02.931Z,100.53
2023-11-08T04:59:02.153Z,101.7
2023-11-08T05:00:02.705Z,102.63
2023-11-08T05:02:02.255Z,105.67
2023-11-08T05:03:02.544Z,106.14
2023-11-08T05:04:02.138Z,106.37
2023-11-08T05:05:02.892Z,104.97
2023-11-08T05:07:02.276Z,107.07
2023-11-08T05:09:02.333Z,106.84
2023-11-08T05:10:02.681Z,106.84
2023-11-08T05:11:02.582Z,105.9
2023-11-08T05:12:02.668Z,106.37
2023-11-08T05:14:02.369Z,106.14
2023-11-08T05:15:02.475Z,108
2023-11-08T05:16:02.143Z,107.77
2023-11-08T05:17:02.529Z,108.47
2023-11-08T05:18:02.706Z,109.64
2023-11-08T05:19:02.066Z,110.11
2023-11-08T05:20:02.226Z,110.11
2023-11-08T05:21:02.714Z,110.11
2023-11-08T05:22:02.877Z,108.94
2023-11-08T05:23:02.048Z,108.47
2023-11-08T05:24:02.526Z,109.87
2023-11-08T05:25:02.151Z,111.74
2023-11-08T05:26:02.949Z,112.44
2023-11-08T05:27:01.861Z,112.21
2023-11-08T05:28:02.213Z,111.51
2023-11-08T05:29:02.310Z,111.74
2023-11-08T05:30:01.719Z,113.84
2023-11-08T05:31:01.942Z,113.38
2023-11-08T05:32:02.526Z,112.91
2023-11-08T05:33:02.960Z,111.51
2023-11-08T05:34:02.017Z,109.17
2023-11-08T05:35:02.687Z,108.24
2023-11-08T05:36:02.339Z,107.54
2023-11-08T05:37:02.015Z,108.24
2023-11-08T05:38:02.313Z,110.34
2023-11-08T05:39:02.530Z,109.41
2023-11-08T05:40:02.160Z,108.7
2023-11-08T05:41:02.446Z,109.64
2023-11-08T05:43:02.316Z,109.17
2023-11-08T05:46:02.613Z,108.47
2023-11-08T05:47:02.221Z,109.17
2023-11-08T05:48:02.856Z,110.34
2023-11-08T05:49:02.593Z,110.34
2023-11-08T05:50:02.315Z,110.81
2023-11-08T05:51:02.431Z,112.21
2023-11-08T05:52:02.569Z,111.97
2023-11-08T05:54:02.888Z,111.97
2023-11-08T05:57:02.889Z,114.78
2023-11-08T05:58:02.933Z,115.95
2023-11-08T05:59:02.941Z,113.84
2023-11-08T06:00:02.602Z,114.54
2023-11-08T06:02:02.844Z,111.74
2023-11-08T06:03:02.178Z,112.21
2023-11-08T06:04:02.237Z,111.74
2023-11-08T06:05:02.585Z,111.51
2023-11-08T06:06:02.893Z,110.11
2023-11-08T06:07:02.575Z,109.17
2023-11-08T06:08:02.447Z,110.34
2023-11-08T06:09:02.786Z,109.64
2023-11-08T06:10:02.725Z,109.87
2023-11-08T06:11:02.644Z,110.57
2023-11-08T06:12:02.378Z,111.27
2023-11-08T06:13:02.276Z,111.74
2023-11-08T06:14:02.190Z,111.27
2023-11-08T06:15:02.054Z,108.94
2023-11-08T06:16:02.036Z,109.87
2023-11-08T06:17:02.593Z,110.34
2023-11-08T06:18:02.940Z,109.17
2023-11-08T06:19:02.368Z,108.7
2023-11-08T06:20:02.465Z,109.17
2023-11-08T06:21:02.251Z,108.7
2023-11-08T06:23:02.556Z,106.6
2023-11-08T06:24:02.523Z,107.07
2023-11-08T06:25:02.663Z,106.37
2023-11-08T06:26:02.386Z,106.37
2023-11-08T06:28:02.331Z,106.37
2023-11-08T06:29:02.862Z,105.67
2023-11-08T06:30:02.198Z,104.73
2023-11-08T06:31:02.263Z,104.97
2023-11-08T06:32:02.712Z,104.97
2023-11-08T06:34:03.064Z,106.84
2023-11-08T06:35:02.132Z,106.6
2023-11-08T06:36:02.525Z,107.07
2023-11-08T06:37:02.467Z,106.6
2023-11-08T06:38:02.799Z,105.67
2023-11-08T06:39:02.215Z,105.67
2023-11-08T06:41:02.333Z,105.2
2023-11-08T06:42:02.238Z,103.8
2023-11-08T06:43:02.672Z,104.73
2023-11-08T06:44:02.480Z,105.2
2023-11-08T06:45:02.158Z,105.2
2023-11-08T06:46:02.466Z,107.07
2023-11-08T06:47:02.553Z,106.14
2023-11-08T06:48:02.103Z,105.44
2023-11-08T06:49:02.090Z,105.9
2023-11-08T06:50:02.623Z,104.5
2023-11-08T06:51:02.308Z,103.1
2023-11-08T06:52:02.472Z,103.57
2023-11-08T06:53:02.697Z,104.5
2023-11-08T06:54:02.270Z,102.17
2023-11-08T06:55:02.702Z,100.53
2023-11-08T06:56:02.743Z,101.47
2023-11-08T06:57:02.190Z,99.6
2023-11-08T06:58:02.803Z,98.43
2023-11-08T06:59:02.600Z,99.36
2023-11-08T07:00:02.055Z,99.36
2023-11-08T07:01:09.382Z,100.53
2023-11-08T07:02:02.878Z,100.53
2023-11-08T07:03:02.683Z,99.83
2023-11-08T07:04:02.998Z,100.3
2023-11-08T07:05:01.948Z,100.53
2023-11-08T07:06:02.228Z,101.47
2023-11-08T07:07:02.795Z,102.87
2023-11-08T07:08:02.782Z,101.93
2023-11-08T07:09:02.192Z,101.23
2023-11-08T07:10:02.695Z,101
2023-11-08T07:11:01.928Z,101.47
2023-11-08T07:12:02.216Z,100.53
2023-11-08T07:13:02.353Z,101.23
2023-11-08T07:14:02.614Z,101.47
2023-11-08T07:15:02.679Z,102.87
2023-11-08T07:16:02.890Z,103.33
2023-11-08T07:18:02.556Z,105.67
2023-11-08T07:20:02.559Z,105.67
2023-11-08T07:21:02.837Z,107.07
2023-11-08T07:22:02.226Z,108.94
2023-11-08T07:23:02.271Z,110.81
2023-11-08T07:24:02.691Z,111.04
2023-11-08T07:25:02.260Z,110.81
2023-11-08T07:26:01.783Z,111.04
2023-11-08T07:27:02.221Z,111.74
2023-11-08T07:28:02.212Z,111.51
2023-11-08T07:29:02.345Z,112.21
2023-11-08T07:30:02.526Z,113.14
2023-11-08T07:31:02.488Z,114.54
2023-11-08T07:32:02.249Z,113.14
2023-11-08T07:33:02.954Z,114.31
2023-11-08T07:34:02.877Z,115.01
2023-11-08T07:35:02.541Z,116.18
2023-11-08T07:36:02.132Z,117.58
2023-11-08T07:37:02.614Z,117.35
2023-11-08T07:38:02.092Z,115.95
2023-11-08T07:40:02.649Z,117.35
2023-11-08T07:41:02.230Z,118.28
2023-11-08T07:42:02.681Z,119.22
2023-11-08T07:43:02.058Z,119.68
2023-11-08T07:44:03.005Z,119.92
2023-11-08T07:45:02.816Z,120.38
2023-11-08T07:48:02.983Z,119.92
2023-11-08T07:49:02.801Z,119.45
2023-11-08T07:50:02.414Z,120.38
2023-11-08T07:51:01.984Z,120.38
2023-11-08T07:52:02.980Z,121.08
2023-11-08T07:53:02.435Z,121.08
2023-11-08T07:54:02.549Z,121.08
2023-11-08T07:56:02.383Z,121.32
2023-11-08T07:58:02.217Z,122.72
2023-11-08T07:59:01.873Z,121.08
2023-11-08T08:00:01.978Z,120.15
2023-11-08T08:01:02.784Z,120.15
2023-11-08T08:02:02.444Z,120.62
2023-11-08T08:04:02.498Z,122.02
2023-11-08T08:05:02.866Z,122.95
2023-11-08T08:06:02.082Z,122.72
2023-11-08T08:07:03.049Z,120.85
2023-11-08T08:08:02.979Z,119.68
2023-11-08T08:11:02.119Z,119.68
2023-11-08T08:13:02.289Z,118.51
2023-11-08T08:14:02.671Z,118.28
2023-11-08T08:15:02.499Z,117.35
2023-11-08T08:16:02.368Z,115.95
2023-11-08T08:18:03.102Z,113.84
2023-11-08T08:19:02.700Z,112.91
2023-11-08T08:20:02.269Z,113.84
2023-11-08T08:23:02.781Z,111.74
2023-11-08T08:24:07.214Z,110.11
2023-11-08T08:25:02.586Z,111.04
2023-11-08T08:26:02.003Z,111.74
2023-11-08T08:27:02.381Z,110.57
2023-11-08T08:28:02.107Z,110.57
2023-11-08T08:29:02.584Z,109.87
2023-11-08T08:30:02.686Z,108.94
2023-11-08T08:32:02.054Z,109.64
2023-11-08T08:33:02.609Z,110.11
2023-11-08T08:34:02.317Z,110.81
2023-11-08T08:35:03.081Z,109.64
2023-11-08T08:37:02.216Z,109.64
2023-11-08T08:38:02.152Z,110.57
2023-11-08T08:39:02.707Z,110.11
2023-11-08T08:40:02.806Z,110.34
2023-11-08T08:41:02.031Z,107.77
2023-11-08T08:42:02.798Z,106.6
2023-11-08T08:43:01.950Z,105.9
2023-11-08T08:44:02.780Z,105.2
2023-11-08T08:45:02.459Z,104.27
2023-11-08T08:46:02.731Z,104.73
2023-11-08T08:48:02.259Z,103.33
2023-11-08T08:49:02.771Z,103.33
2023-11-08T08:50:03.056Z,104.03
2023-11-08T08:51:02.912Z,103.33
2023-11-08T08:52:02.906Z,103.1
2023-11-08T08:53:02.944Z,103.57
2023-11-08T08:54:01.878Z,104.97
2023-11-08T08:56:02.710Z,107.07
2023-11-08T08:57:01.927Z,106.37
2023-11-08T08:58:02.369Z,105.2
2023-11-08T08:59:02.507Z,106.14
2023-11-08T09:00:02.064Z,106.14
2023-11-08T09:01:02.833Z,106.14
2023-11-08T09:02:02.680Z,105.67
2023-11-08T09:04:03.063Z,104.27
2023-11-08T09:05:01.989Z,104.03
2023-11-08T09:06:02.268Z,104.27
2023-11-08T09:07:01.983Z,105.44
2023-11-08T09:08:02.521Z,105.67
2023-11-08T09:09:02.187Z,104.73
2023-11-08T09:10:02.818Z,104.27
2023-11-08T09:11:02.000Z,106.37
2023-11-08T09:12:02.434Z,105.9
2023-11-08T09:13:02.273Z,105.44
2023-11-08T09:14:03.045Z,106.37
2023-11-08T09:15:02.064Z,107.3
2023-11-08T09:16:02.273Z,108.24
2023-11-08T09:18:02.521Z,109.17
2023-11-08T09:19:02.779Z,109.17
2023-11-08T09:20:02.994Z,108.94
2023-11-08T09:22:02.762Z,109.41
2023-11-08T09:23:02.191Z,111.04
2023-11-08T09:25:02.876Z,108.94
2023-11-08T09:27:02.155Z,110.34
2023-11-08T09:28:02.276Z,111.51
2023-11-08T09:29:02.028Z,112.68
2023-11-08T09:30:02.548Z,113.38
2023-11-08T09:31:02.175Z,111.27
2023-11-08T09:32:02.797Z,110.57
2023-11-08T09:33:02.912Z,109.41
2023-11-08T09:34:02.435Z,107.54
2023-11-08T09:35:02.986Z,108
2023-11-08T09:36:02.811Z,108
2023-11-08T09:37:02.095Z,107.3
2023-11-08T09:38:02.140Z,107.3
2023-11-08T09:40:02.853Z,108.24
2023-11-08T09:41:02.349Z,110.57
2023-11-08T09:42:02.029Z,111.74
2023-11-08T09:43:02.139Z,111.51
2023-11-08T09:44:02.328Z,113.14
2023-11-08T09:45:03.035Z,113.38
2023-11-08T09:46:02.540Z,112.68
2023-11-08T09:47:02.297Z,112.91
2023-11-08T09:48:02.858Z,113.61
2023-11-08T09:49:03.029Z,113.61
2023-11-08T09:50:03.087Z,114.08
2023-11-08T09:51:02.055Z,114.78
2023-11-08T09:52:02.313Z,114.31
2023-11-08T09:53:02.541Z,114.54
2023-11-08T09:54:01.993Z,114.31
2023-11-08T09:55:02.328Z,112.44
2023-11-08T09:56:02.276Z,112.68
2023-11-08T09:57:02.979Z,114.08
2023-11-08T09:58:02.312Z,114.08
2023-11-08T09:59:02.078Z,114.31
2023-11-08T10:00:03.054Z,114.08
2023-11-08T10:01:02.949Z,113.61
2023-11-08T10:02:02.092Z,113.38
2023-11-08T10:03:02.572Z,114.08
2023-11-08T10:04:02.765Z,113.84
2023-11-08T10:05:03.053Z,113.61
2023-11-08T10:08:02.209Z,111.97
2023-11-08T10:09:02.547Z,112.44
2023-11-08T10:10:02.482Z,114.08
2023-11-08T10:11:02.745Z,112.44
2023-11-08T10:12:02.463Z,112.68
2023-11-08T10:13:02.593Z,113.61
2023-11-08T10:14:02.116Z,113.61
2023-11-08T10:15:02.625Z,112.44
2023-11-08T10:17:02.089Z,112.91
2023-11-08T10:19:32.258Z,110.34
2023-11-08T10:19:36.815Z,111.97
2023-11-08T10:20:02.752Z,111.97
2023-11-08T10:21:04.825Z,110.57
2023-11-08T10:22:02.533Z,110.34
2023-11-08T10:23:02.468Z,109.17
2023-11-08T10:24:02.362Z,109.64
2023-11-08T10:25:02.873Z,109.87
2023-11-08T10:27:02.581Z,107.3
2023-11-08T10:28:01.942Z,106.6
2023-11-08T10:29:02.127Z,106.37
2023-11-08T10:31:03.007Z,106.37
2023-11-08T10:32:02.793Z,106.14
2023-11-08T10:33:02.420Z,106.6
2023-11-08T10:34:02.234Z,107.77
2023-11-08T10:35:02.952Z,107.77
2023-11-08T10:36:02.123Z,108.24
2023-11-08T10:37:02.400Z,107.54
2023-11-08T10:38:02.842Z,107.07
2023-11-08T10:40:02.303Z,106.6
2023-11-08T10:42:02.653Z,105.44
2023-11-08T10:43:02.353Z,106.37
2023-11-08T10:44:02.627Z,104.97
2023-11-08T10:45:02.728Z,105.9
2023-11-08T10:46:02.191Z,106.14
2023-11-08T10:47:02.676Z,105.2
2023-11-08T10:48:02.618Z,105.2
2023-11-08T10:49:02.812Z,105.2
2023-11-08T10:50:02.149Z,103.57
2023-11-08T10:51:02.164Z,103.33
2023-11-08T10:52:02.538Z,103.33
2023-11-08T10:53:02.759Z,103.57
2023-11-08T10:54:02.887Z,103.1
2023-11-08T10:55:02.564Z,102.4
2023-11-08T10:56:02.547Z,101.23
2023-11-08T10:57:02.662Z,101.93
2023-11-08T10:58:02.416Z,101.47
2023-11-08T10:59:02.514Z,101.7
2023-11-08T11:00:02.408Z,102.63
2023-11-08T11:03:02.371Z,101.93
2023-11-08T11:04:02.326Z,101.47
2023-11-08T11:05:02.580Z,101.93
2023-11-08T11:07:02.465Z,103.1
2023-11-08T11:08:01.940Z,103.57
2023-11-08T11:09:02.700Z,102.87
2023-11-08T11:11:02.508Z,102.4
2023-11-08T11:12:02.610Z,103.57
2023-11-08T11:13:01.797Z,103.8
2023-11-08T11:14:02.700Z,105.2
2023-11-08T11:15:02.618Z,104.97
2023-11-08T11:16:02.204Z,104.73
2023-11-08T11:17:02.757Z,105.2
2023-11-08T11:18:02.587Z,107.07
2023-11-08T11:19:02.334Z,107.07
2023-11-08T11:21:02.104Z,108
2023-11-08T11:22:02.416Z,107.77
2023-11-08T11:23:02.552Z,106.6
2023-11-08T11:24:02.275Z,107.07
2023-11-08T11:26:02.560Z,109.41
2023-11-08T11:27:02.079Z,111.04
2023-11-08T11:28:02.539Z,110.34
2023-11-08T11:29:02.435Z,109.41
2023-11-08T11:30:02.192Z,108.94
2023-11-08T11:31:04.003Z,108.7
2023-11-08T11:32:02.252Z,108.47
2023-11-08T11:33:02.303Z,108.94
2023-11-08T11:34:02.478Z,109.64
2023-11-08T11:35:02.570Z,109.17
2023-11-08T11:36:02.670Z,107.77
2023-11-08T11:37:02.224Z,107.77
2023-11-08T11:38:02.392Z,107.54
2023-11-08T11:39:02.665Z,107.77
2023-11-08T11:40:02.613Z,106.84
2023-11-08T11:41:02.402Z,106.6
2023-11-08T11:42:02.476Z,106.14
2023-11-08T11:44:02.363Z,105.9
2023-11-08T11:45:02.481Z,103.8
2023-11-08T11:48:02.514Z,105.44
2023-11-08T11:50:01.976Z,107.77
2023-11-08T11:51:02.445Z,106.37
2023-11-08T11:52:01.912Z,106.6
2023-11-08T11:53:02.651Z,106.14
2023-11-08T11:54:02.420Z,105.67
2023-11-08T11:55:02.425Z,106.84
2023-11-08T11:56:02.648Z,107.3
2023-11-08T11:57:02.101Z,106.14
2023-11-08T11:58:02.868Z,106.6
2023-11-08T12:00:02.418Z,106.6
2023-11-08T12:01:02.909Z,107.3
2023-11-08T12:02:02.413Z,107.3
2023-11-08T12:03:02.376Z,108.47
2023-11-08T12:04:02.566Z,107.3
2023-11-08T12:05:02.776Z,106.14
2023-11-08T12:06:02.414Z,104.5
2023-11-08T12:07:02.668Z,105.2
2023-11-08T12:08:02.691Z,105.44
2023-11-08T12:10:02.764Z,108
2023-11-08T12:12:01.906Z,107.3
2023-11-08T12:13:02.712Z,107.54
2023-11-08T12:14:02.959Z,106.14
2023-11-08T12:15:02.660Z,106.14
2023-11-08T12:16:02.533Z,106.6
2023-11-08T12:17:02.397Z,105.9
2023-11-08T12:18:02.896Z,105.67
2023-11-08T12:19:02.434Z,104.03
2023-11-08T12:20:02.309Z,103.8
2023-11-08T12:21:02.837Z,104.97
2023-11-08T12:22:02.939Z,105.44
2023-11-08T12:24:02.788Z,108
2023-11-08T12:25:02.696Z,106.37
2023-11-08T12:26:02.668Z,106.14
2023-11-08T12:27:02.384Z,105.9
2023-11-08T12:28:02.179Z,107.3
2023-11-08T12:29:02.413Z,107.77
2023-11-08T12:31:02.605Z,110.11
2023-11-08T12:32:02.443Z,111.04
2023-11-08T12:36:02.491Z,108.7
2023-11-08T12:37:02.557Z,108.7
2023-11-08T12:38:02.664Z,109.64
2023-11-08T12:39:02.205Z,109.64
2023-11-08T12:40:02.194Z,110.11
2023-11-08T12:41:02.463Z,110.57
2023-11-08T12:42:02.421Z,110.11
2023-11-08T12:43:56.274Z,109.64
2023-11-08T12:44:03.652Z,109.64
2023-11-08T12:45:02.780Z,110.11
2023-11-08T12:46:36.202Z,110.11
2023-11-08T12:47:02.812Z,108.47
2023-11-08T12:48:02.473Z,108
2023-11-08T12:50:02.936Z,107.77
2023-11-08T12:51:02.412Z,111.04
2023-11-08T12:52:02.816Z,111.04
2023-11-08T12:53:02.294Z,111.27
2023-11-08T12:54:02.692Z,111.27
2023-11-08T12:55:02.425Z,110.81
2023-11-08T12:57:02.671Z,110.81
2023-11-08T12:58:02.116Z,111.74
2023-11-08T12:59:02.019Z,111.74
2023-11-08T13:00:02.681Z,111.74
2023-11-08T13:01:02.421Z,113.14
2023-11-08T13:02:02.747Z,113.61
2023-11-08T13:03:02.035Z,113.61
2023-11-08T13:04:02.139Z,114.31
2023-11-08T13:05:02.939Z,114.78
2023-11-08T13:06:02.714Z,116.18
2023-11-08T13:07:02.025Z,115.48
2023-11-08T13:08:02.448Z,115.95
2023-11-08T13:09:02.156Z,116.18
2023-11-08T13:10:02.840Z,116.41
2023-11-08T13:11:07.393Z,117.11
2023-11-08T13:14:02.337Z,115.01
2023-11-08T13:16:02.257Z,115.24
2023-11-08T13:17:02.913Z,113.61
2023-11-08T13:18:02.477Z,114.54
2023-11-08T13:19:02.640Z,114.31
2023-11-08T13:20:02.520Z,114.54
2023-11-08T13:21:02.598Z,113.61
2023-11-08T13:22:02.234Z,113.61
2023-11-08T13:23:02.792Z,113.84
2023-11-08T13:24:06.916Z,114.08
2023-11-08T13:25:02.428Z,115.24
2023-11-08T13:26:02.765Z,115.95
2023-11-08T13:27:02.018Z,114.78
2023-11-08T13:28:02.322Z,114.08
2023-11-08T13:29:02.640Z,115.24
2023-11-08T13:30:02.677Z,115.01
2023-11-08T13:31:02.642Z,114.08
2023-11-08T13:32:02.531Z,113.61
2023-11-08T13:33:02.093Z,113.14
2023-11-08T13:34:02.409Z,113.38
2023-11-08T13:35:02.423Z,113.61
2023-11-08T13:36:02.825Z,114.31
2023-11-08T13:37:02.536Z,115.24
2023-11-08T13:38:02.916Z,115.01
2023-11-08T13:39:01.845Z,114.78
2023-11-08T13:40:03.148Z,114.31
2023-11-08T13:41:02.867Z,115.95
2023-11-08T13:42:02.563Z,117.11
2023-11-08T13:43:02.633Z,118.28
2023-11-08T13:44:02.515Z,120.15
2023-11-08T13:45:02.381Z,121.55
2023-11-08T13:46:02.708Z,123.42
2023-11-08T13:48:02.391Z,126.46
2023-11-08T13:51:02.878Z,125.06
2023-11-08T13:52:02.143Z,125.76
2023-11-08T13:53:02.415Z,125.29
2023-11-08T13:54:02.604Z,125.06
2023-11-08T13:55:03.002Z,125.29
2023-11-08T13:56:07.920Z,125.06
2023-11-08T13:57:03.031Z,125.06
2023-11-08T13:58:02.971Z,123.19
2023-11-08T13:59:02.286Z,121.78
2023-11-08T14:00:02.666Z,122.49
2023-11-08T14:01:02.900Z,121.78
2023-11-08T14:02:02.752Z,120.62
2023-11-08T14:03:02.784Z,120.38
2023-11-08T14:04:02.099Z,120.85
2023-11-08T14:06:02.844Z,119.92
2023-11-08T14:07:02.421Z,121.08
2023-11-08T14:08:02.417Z,122.02
2023-11-08T14:09:02.554Z,122.02
2023-11-08T14:10:02.497Z,121.32
2023-11-08T14:11:02.243Z,121.32
2023-11-08T14:12:02.538Z,122.25
2023-11-08T14:13:04.418Z,121.55
2023-11-08T14:14:02.445Z,122.25
2023-11-08T14:15:02.812Z,123.19
2023-11-08T14:16:02.272Z,121.55
2023-11-08T14:18:02.313Z,120.85
2023-11-08T14:19:02.871Z,121.55
2023-11-08T14:20:02.605Z,120.15
2023-11-08T14:21:02.664Z,120.15
2023-11-08T14:22:02.799Z,120.62
2023-11-08T14:23:01.779Z,121.08
2023-11-08T14:24:02.302Z,119.45
2023-11-08T14:25:02.267Z,120.38
2023-11-08T14:26:02.170Z,119.45